createdAt,value
2022-11-10T00:05:35.181Z,56.2
2022-11-10T00:10:58.137Z,56.1
2022-11-10T00:16:19.926Z,56.1
2022-11-10T00:21:26.132Z,56.1
2022-11-10T00:26:48.758Z,56
2022-11-10T00:32:10.362Z,55.9
2022-11-10T00:37:32.619Z,55.9
2022-11-10T00:42:39.078Z,55.9
2022-11-10T00:48:00.792Z,55.8
2022-11-10T00:53:21.929Z,55.8
2022-11-10T00:58:28.276Z,55.8
2022-11-10T01:03:34.704Z,55.8
2022-11-10T01:08:57.327Z,55.7
2022-11-10T01:14:18.957Z,55.6
2022-11-10T01:19:43.764Z,55.6
2022-11-10T01:25:05.672Z,55.6
2022-11-10T01:30:27.931Z,55.5
2022-11-10T01:35:18.964Z,55.4
2022-11-10T01:40:25.058Z,55.4
2022-11-10T01:45:47.427Z,55.4
2022-11-10T01:51:09.213Z,55.3
2022-11-10T01:56:30.911Z,55.3
2022-11-10T02:02:08.718Z,55.3
2022-11-10T02:07:14.147Z,55.2
2022-11-10T02:12:51.828Z,55.2
2022-11-10T02:17:58.551Z,55.1
2022-11-10T02:23:34.672Z,55.1
2022-11-10T02:29:12.399Z,55
2022-11-10T02:34:50.029Z,55
2022-11-10T02:39:54.676Z,54.9
2022-11-10T02:45:31.532Z,54.9
2022-11-10T02:50:54.226Z,54.9
2022-11-10T02:56:30.663Z,54.8
2022-11-10T03:01:52.583Z,54.8
2022-11-10T03:07:20.643Z,54.8
2022-11-10T03:12:57.751Z,54.7
2022-11-10T03:18:56.850Z,54.6
2022-11-10T03:24:34.220Z,54.6
2022-11-10T03:30:10.740Z,54.6
2022-11-10T03:35:52.933Z,54.6
2022-11-10T03:41:45.096Z,54.5
2022-11-10T03:46:51.780Z,54.4
2022-11-10T03:52:34.330Z,54.4
2022-11-10T03:57:56.012Z,54.4
2022-11-10T04:03:01.676Z,54.3
2022-11-10T04:07:53.897Z,54.3
2022-11-10T04:13:16.191Z,54.3
2022-11-10T04:18:37.375Z,54.2
2022-11-10T04:23:59.015Z,54.2
2022-11-10T04:29:05.975Z,54.1
2022-11-10T04:34:12.634Z,54.1
2022-11-10T04:39:34.506Z,54.1
2022-11-10T04:44:56.480Z,54
2022-11-10T04:50:19.187Z,53.9
2022-11-10T04:55:41.812Z,53.9
2022-11-10T05:00:48.823Z,53.9
2022-11-10T05:06:11.552Z,53.8
2022-11-10T05:11:33.591Z,53.8
2022-11-10T05:16:24.787Z,53.7
2022-11-10T05:21:31.398Z,53.7
2022-11-10T05:26:53.312Z,53.6
2022-11-10T05:32:15.025Z,53.6
2022-11-10T05:37:52.548Z,53.6
2022-11-10T05:43:31.889Z,53.5
2022-11-10T05:48:53.774Z,53.4
2022-11-10T05:54:31.978Z,53.4
2022-11-10T06:00:09.324Z,53.4
2022-11-10T06:05:48.244Z,53.3
2022-11-10T06:11:25.491Z,53.3
2022-11-10T06:17:03.361Z,53.3
2022-11-10T06:22:48.110Z,53.2
2022-11-10T06:28:26.713Z,53.1
2022-11-10T06:34:04.174Z,53.1
2022-11-10T06:39:48.651Z,53.1
2022-11-10T06:45:26.311Z,53
2022-11-10T06:51:04.016Z,53
2022-11-10T06:56:42.004Z,52.9
2022-11-10T07:02:23.696Z,52.9
2022-11-10T07:08:33.319Z,52.9
2022-11-10T07:19:34.072Z,52.8
2022-11-10T07:25:18.226Z,52.7
2022-11-10T07:31:00.779Z,52.7
2022-11-10T07:36:43.324Z,52.6
2022-11-10T07:42:25.463Z,52.6
2022-11-10T07:48:03.176Z,52.6
2022-11-10T07:53:41.152Z,52.5
2022-11-10T07:59:18.502Z,52.4
2022-11-10T08:05:01.322Z,52.4
2022-11-10T08:16:01.870Z,52.3
2022-11-10T08:21:43.421Z,52.3
2022-11-10T08:27:21.467Z,52.3
2022-11-10T08:33:06.777Z,52.2
2022-11-10T08:38:45.372Z,52.1
2022-11-10T08:44:44.389Z,52.1
2022-11-10T08:50:22.120Z,52.1
2022-11-10T08:56:00.631Z,52
2022-11-10T09:01:43.891Z,52
2022-11-10T09:07:22.690Z,52
2022-11-10T09:18:38.731Z,51.9
2022-11-10T09:29:53.017Z,52.3
2022-11-10T09:35:42.555Z,52.7
2022-11-10T09:41:24.498Z,53.1
2022-11-10T09:47:03.350Z,53.6
2022-11-10T09:53:12.380Z,54.2
2022-11-10T09:58:55.352Z,54.7
2022-11-10T10:04:32.784Z,55.2
2022-11-10T10:10:39.411Z,55.8
2022-11-10T10:16:17.675Z,56.3
2022-11-10T10:21:58.939Z,56.5
2022-11-10T10:28:17.948Z,56.9
2022-11-10T10:33:55.704Z,57.4
2022-11-10T10:39:39.207Z,57.9
2022-11-10T10:45:20.873Z,58.3
2022-11-10T10:51:31.838Z,58.9
2022-11-10T10:57:09.242Z,59.4
2022-11-10T11:02:31.629Z,59.9
2022-11-10T11:08:09.772Z,60.3
2022-11-10T11:13:49.006Z,60.8
2022-11-10T11:19:17.395Z,61.1
2022-11-10T11:24:57.194Z,61.4
2022-11-10T11:30:35.556Z,61.8
2022-11-10T11:36:15.160Z,62.1
2022-11-10T11:41:58.691Z,62.4
2022-11-10T11:47:39.269Z,62.7
2022-11-10T11:53:01.480Z,62.9
2022-11-10T11:58:13.064Z,63.1
2022-11-10T12:03:09.520Z,63.3
2022-11-10T12:08:32.251Z,63.5
2022-11-10T12:13:39.742Z,63.6
2022-11-10T12:19:06.247Z,63.6
2022-11-10T12:24:14.151Z,63.6
2022-11-10T12:29:36.916Z,63.6
2022-11-10T12:34:44.618Z,63.8
2022-11-10T12:39:51.181Z,63.8
2022-11-10T12:44:58.677Z,63.8
2022-11-10T12:50:21.719Z,63.8
2022-11-10T12:55:28.789Z,63.7
2022-11-10T13:00:40.215Z,63.7
2022-11-10T13:06:18.395Z,63.6
2022-11-10T13:11:45.944Z,63.6
2022-11-10T13:17:08.493Z,63.6
2022-11-10T13:22:32.828Z,63.6
2022-11-10T13:27:40.331Z,63.5
2022-11-10T13:33:02.703Z,63.4
2022-11-10T13:38:29.014Z,63.4
2022-11-10T13:43:53.328Z,63.4
2022-11-10T13:49:32.399Z,63.3
2022-11-10T13:54:54.314Z,63.3
2022-11-10T14:00:37.147Z,63.3
2022-11-10T14:06:15.826Z,63.2
2022-11-10T14:11:54.153Z,63.1
2022-11-10T14:17:16.934Z,63.1
2022-11-10T14:23:01.456Z,63
2022-11-10T14:28:46.342Z,62.9
2022-11-10T14:34:24.812Z,62.9
2022-11-10T14:40:04.112Z,62.8
2022-11-10T14:45:42.932Z,62.8
2022-11-10T14:51:21.205Z,62.8
2022-11-10T14:57:01.189Z,62.7
2022-11-10T15:02:40.793Z,62.6
2022-11-10T15:08:26.395Z,62.6
2022-11-10T15:14:05.953Z,62.5
2022-11-10T15:19:44.886Z,62.5
2022-11-10T15:25:22.359Z,62.4
2022-11-10T15:31:01.461Z,62.4
2022-11-10T15:36:44.216Z,62.3
2022-11-10T15:42:14.981Z,62.3
2022-11-10T15:47:42.010Z,62.3
2022-11-10T15:53:26.184Z,62.2
2022-11-10T15:59:03.857Z,62.1
2022-11-10T16:04:10.396Z,62.1
2022-11-10T16:09:49.929Z,62
2022-11-10T16:15:28.589Z,62
2022-11-10T16:20:51.756Z,61.9
2022-11-10T16:26:18.575Z,61.9
2022-11-10T16:36:33.606Z,61.8
2022-11-10T16:42:12.745Z,61.8
2022-11-10T16:47:36.079Z,61.7
2022-11-10T16:52:58.623Z,61.6
2022-11-10T16:58:11.917Z,61.6
2022-11-10T17:03:24.483Z,61.5
2022-11-10T17:08:32.250Z,61.4
2022-11-10T17:14:09.673Z,61.4
2022-11-10T17:24:26.357Z,61.3
2022-11-10T17:29:38.796Z,61.3
2022-11-10T17:35:06.883Z,61.2
2022-11-10T17:40:31.137Z,61.2
2022-11-10T17:45:38.925Z,61.1
2022-11-10T17:51:06.147Z,61.1
2022-11-10T17:56:18.110Z,61
2022-11-10T18:01:25.315Z,60.9
2022-11-10T18:06:21.392Z,60.9
2022-11-10T18:12:00.554Z,60.9
2022-11-10T18:17:39.399Z,60.8
2022-11-10T18:23:21.553Z,60.8
2022-11-10T18:28:44.683Z,60.7
2022-11-10T18:34:22.805Z,60.7
2022-11-10T18:39:45.374Z,60.6
2022-11-10T18:45:26.547Z,60.6
2022-11-10T18:51:10.856Z,60.5
2022-11-10T18:56:51.576Z,60.4
2022-11-10T19:02:34.526Z,60.4
2022-11-10T19:08:01.589Z,60.3
2022-11-10T19:13:40.646Z,60.3
2022-11-10T19:19:03.778Z,60.2
2022-11-10T19:25:23.200Z,60.1
2022-11-10T19:30:51.260Z,60.1
2022-11-10T19:36:14.053Z,60
2022-11-10T19:41:52.807Z,59.9
2022-11-10T19:47:30.808Z,59.9
2022-11-10T19:53:10.206Z,59.9
2022-11-10T19:58:50.820Z,59.8
2022-11-10T20:04:31.867Z,59.8
2022-11-10T20:10:11.806Z,59.7
2022-11-10T20:15:55.983Z,59.7
2022-11-10T20:21:39.430Z,59.6
2022-11-10T20:27:08.701Z,59.6
2022-11-10T20:32:47.428Z,59.5
2022-11-10T20:38:25.731Z,59.4
2022-11-10T20:44:24.564Z,59.4
2022-11-10T20:50:24.840Z,59.3
2022-11-10T20:56:09.094Z,59.3
2022-11-10T21:01:51.176Z,59.2
2022-11-10T21:07:18.261Z,59.2
2022-11-10T21:12:56.671Z,59.1
2022-11-10T21:18:34.204Z,59.1
2022-11-10T21:29:19.677Z,59
2022-11-10T21:34:46.229Z,58.9
2022-11-10T21:40:26.944Z,58.9
2022-11-10T21:46:05.968Z,58.8
2022-11-10T21:51:28.308Z,58.8
2022-11-10T21:57:06.499Z,58.8
2022-11-10T22:02:45.499Z,58.7
2022-11-10T22:08:22.965Z,58.6
2022-11-10T22:24:51.976Z,58.5
2022-11-10T22:30:34.235Z,58.4
2022-11-10T22:35:57.494Z,58.4
2022-11-10T22:41:21.155Z,58.3
2022-11-10T22:46:13.993Z,58.3
2022-11-10T22:51:35.919Z,58.3
2022-11-10T22:56:42.872Z,58.2
2022-11-10T23:02:25.740Z,58.1
2022-11-10T23:07:36.877Z,58
2022-11-10T23:13:14.358Z,57.9
2022-11-10T23:24:18.646Z,57.7
2022-11-10T23:30:02.583Z,57.6
2022-11-10T23:35:40.932Z,57.6
2022-11-10T23:41:18.018Z,57.5
2022-11-10T23:47:11.532Z,57.4
2022-11-10T23:52:24.752Z,57.4
2022-11-10T23:57:46.833Z,57.3
